Time;durP1;ratioP1;P1;durP2;ratioP2;P2;SDS_P1;SDS_P2;PMS_P1;PMS_P2;Temp;Humidity;BMP_temperature;BMP_pressure;BME280_temperature;BME280_humidity;BME280_pressure;Samples;Min_cycle;Max_cycle;Signal;HPM_P1;HPM_P2
2022/11/02 00:00:27;;;;;;;24.65;4.10;;;;;;;;;;4985115;28;20037;-75
2022/11/02 00:02:56;;;;;;;27.67;4.95;;;;;;;;;;4983851;28;20041;-76
2022/11/02 00:05:27;;;;;;;43.58;5.80;;;;;;;;;;4995239;28;20037;-74
2022/11/02 00:07:53;;;;;;;26.73;4.20;;;;;;;;;;4981954;28;20103;-77
2022/11/02 00:10:20;;;;;;;31.20;5.32;;;;;;;;;;4985650;28;20954;-76
2022/11/02 00:12:46;;;;;;;34.90;4.03;;;;;;;;;;4981238;28;20129;-76
2022/11/02 00:15:11;;;;;;;37.95;4.43;;;;;;;;;;4985458;28;20071;-77
2022/11/02 00:17:44;;;;;;;26.83;3.28;;;;;;;;;;4995475;28;20038;-77
2022/11/02 00:20:11;;;;;;;26.65;3.38;;;;;;;;;;4972527;28;20958;-77
2022/11/02 00:22:41;;;;;;;27.60;3.53;;;;;;;;;;4977893;28;20991;-77
2022/11/02 00:25:11;;;;;;;31.98;3.50;;;;;;;;;;4979761;28;20072;-77
2022/11/02 00:27:41;;;;;;;28.52;3.28;;;;;;;;;;4960360;28;20025;-78
2022/11/02 00:30:07;;;;;;;25.85;3.83;;;;;;;;;;4981765;28;20118;-76
2022/11/02 00:32:36;;;;;;;25.02;4.25;;;;;;;;;;4981944;28;20124;-80
2022/11/02 00:35:07;;;;;;;17.83;3.40;;;;;;;;;;4979326;28;20054;-81
2022/11/02 00:37:33;;;;;;;27.27;3.93;;;;;;;;;;4986035;28;20045;-78
2022/11/02 00:39:58;;;;;;;30.77;3.50;;;;;;;;;;4971364;28;20041;-79
2022/11/02 00:42:32;;;;;;;20.50;4.88;;;;;;;;;;4988147;28;20599;-78
2022/11/02 00:44:57;;;;;;;21.98;5.05;;;;;;;;;;4988257;28;20040;-76
2022/11/02 00:47:25;;;;;;;14.63;2.80;;;;;;;;;;4980191;28;20477;-78
2022/11/02 00:49:51;;;;;;;20.17;3.08;;;;;;;;;;4980917;28;20140;-76
2022/11/02 00:52:19;;;;;;;19.98;2.95;;;;;;;;;;4971949;28;20041;-79
2022/11/02 00:54:54;;;;;;;23.58;3.63;;;;;;;;;;4980705;28;20092;-76
2022/11/02 00:57:20;;;;;;;18.92;2.63;;;;;;;;;;4981953;28;20721;-77
2022/11/02 00:59:45;;;;;;;24.45;4.18;;;;;;;;;;4980560;28;20053;-75
2022/11/02 01:02:13;;;;;;;24.52;4.10;;;;;;;;;;4971336;28;20047;-76
2022/11/02 01:04:38;;;;;;;32.53;4.55;;;;;;;;;;4967391;28;20103;-76
2022/11/02 01:07:04;;;;;;;25.45;3.95;;;;;;;;;;4974626;28;20045;-77
2022/11/02 01:09:30;;;;;;;18.02;2.47;;;;;;;;;;4979050;28;21122;-76
2022/11/02 01:11:58;;;;;;;24.20;3.63;;;;;;;;;;4972621;28;20685;-77
2022/11/02 01:14:23;;;;;;;28.08;3.40;;;;;;;;;;4977937;28;20699;-75
2022/11/02 01:16:51;;;;;;;25.85;3.40;;;;;;;;;;4994919;28;20470;-73
2022/11/02 01:19:19;;;;;;;24.00;3.78;;;;;;;;;;4979594;28;20135;-76
2022/11/02 01:21:48;;;;;;;33.53;4.03;;;;;;;;;;4980614;28;20040;-77
2022/11/02 01:24:13;;;;;;;26.30;3.58;;;;;;;;;;4981108;28;20089;-76
2022/11/02 01:26:39;;;;;;;22.40;3.50;;;;;;;;;;4977202;28;20030;-73
2022/11/02 01:29:08;;;;;;;26.38;4.03;;;;;;;;;;4970068;28;20028;-73
2022/11/02 01:31:34;;;;;;;20.02;3.42;;;;;;;;;;4965434;28;20041;-73
2022/11/02 01:34:06;;;;;;;23.08;3.47;;;;;;;;;;4974483;28;20037;-75
2022/11/02 01:36:32;;;;;;;29.83;3.75;;;;;;;;;;4978550;28;20029;-72
2022/11/02 01:38:59;;;;;;;35.03;4.35;;;;;;;;;;4980878;28;20044;-74
2022/11/02 01:41:25;;;;;;;35.17;5.53;;;;;;;;;;4981946;28;20029;-74
2022/11/02 01:43:52;;;;;;;36.00;5.25;;;;;;;;;;4982518;28;20880;-74
2022/11/02 01:46:20;;;;;;;31.90;4.18;;;;;;;;;;4978985;28;20037;-73
2022/11/02 01:48:53;;;;;;;21.48;3.42;;;;;;;;;;4981718;28;20107;-77
2022/11/02 01:51:25;;;;;;;37.60;4.80;;;;;;;;;;4979463;28;20037;-77
2022/11/02 01:53:51;;;;;;;42.15;6.30;;;;;;;;;;4983444;28;20181;-75
2022/11/02 01:56:18;;;;;;;31.08;4.40;;;;;;;;;;4984046;28;20130;-77
2022/11/02 01:58:46;;;;;;;48.67;6.05;;;;;;;;;;4976411;28;20439;-73
2022/11/02 02:01:11;;;;;;;37.47;5.90;;;;;;;;;;4980187;28;20029;-75
2022/11/02 02:03:45;;;;;;;31.13;4.75;;;;;;;;;;4973688;28;20049;-77
2022/11/02 02:06:16;;;;;;;28.52;5.95;;;;;;;;;;4992970;28;20901;-75
2022/11/02 02:08:47;;;;;;;23.75;4.78;;;;;;;;;;4979345;28;20581;-75
2022/11/02 02:11:31;;;;;;;34.03;5.38;;;;;;;;;;4987703;28;20099;-78
2022/11/02 02:13:58;;;;;;;28.60;6.65;;;;;;;;;;4978505;28;20821;-79
2022/11/02 02:16:27;;;;;;;19.83;4.88;;;;;;;;;;4999355;28;20545;-78
2022/11/02 02:18:56;;;;;;;32.20;4.60;;;;;;;;;;4993704;28;20055;-78
2022/11/02 02:21:40;;;;;;;38.35;6.78;;;;;;;;;;4974058;28;20504;-78
2022/11/02 02:24:16;;;;;;;40.42;7.88;;;;;;;;;;4980741;28;20263;-78
2022/11/02 02:26:45;;;;;;;37.63;6.38;;;;;;;;;;4979019;28;20468;-77
2022/11/02 02:29:21;;;;;;;40.53;5.72;;;;;;;;;;4982812;28;20034;-77
2022/11/02 02:32:06;;;;;;;35.10;4.47;;;;;;;;;;4969461;28;20037;-77
2022/11/02 02:34:43;;;;;;;40.38;5.85;;;;;;;;;;4959427;28;20040;-77
2022/11/02 02:37:20;;;;;;;29.80;4.50;;;;;;;;;;4979632;28;20054;-78
2022/11/02 02:39:51;;;;;;;36.55;5.20;;;;;;;;;;4997169;28;20503;-77
2022/11/02 02:42:27;;;;;;;40.65;4.97;;;;;;;;;;4974156;28;20399;-74
2022/11/02 02:45:13;;;;;;;34.33;3.80;;;;;;;;;;4965779;28;20096;-77
2022/11/02 02:47:44;;;;;;;35.35;4.40;;;;;;;;;;4971592;28;20055;-77
2022/11/02 02:50:20;;;;;;;34.30;4.72;;;;;;;;;;4989331;28;20103;-78
2022/11/02 02:52:47;;;;;;;31.55;4.63;;;;;;;;;;4982040;28;20160;-77
2022/11/02 02:55:22;;;;;;;31.67;4.65;;;;;;;;;;4970863;28;20083;-76
2022/11/02 02:57:54;;;;;;;30.60;4.40;;;;;;;;;;4979232;28;20041;-77
2022/11/02 03:00:19;;;;;;;;;;;;;;;;;;4988138;28;20049;-78
2022/11/02 03:03:00;;;;;;;22.83;4.57;;;;;;;;;;4977840;28;19917;-78
2022/11/02 03:05:31;;;;;;;35.95;4.82;;;;;;;;;;4973179;28;20430;-78
2022/11/02 03:08:00;;;;;;;32.03;5.30;;;;;;;;;;4982398;28;20442;-78
2022/11/02 03:10:32;;;;;;;30.80;4.70;;;;;;;;;;4978152;28;21653;-77
2022/11/02 03:13:00;;;;;;;27.13;4.38;;;;;;;;;;4974003;28;20043;-81
2022/11/02 03:18:34;;;;;;;33.90;5.20;;;;;;;;;;4928213;28;20056;-78
2022/11/02 03:21:08;;;;;;;40.65;5.10;;;;;;;;;;4981244;28;20085;-78
2022/11/02 03:23:37;;;;;;;42.67;5.45;;;;;;;;;;4979366;28;20687;-76
2022/11/02 03:26:17;;;;;;;51.60;6.15;;;;;;;;;;4992536;28;20033;-76
2022/11/02 03:28:57;;;;;;;37.20;5.03;;;;;;;;;;4961070;28;20034;-80
2022/11/02 03:31:32;;;;;;;29.67;3.97;;;;;;;;;;4966667;28;20116;-81
2022/11/02 03:34:06;;;;;;;30.02;4.50;;;;;;;;;;4993605;28;20098;-84
2022/11/02 03:36:38;;;;;;;33.55;5.20;;;;;;;;;;4980289;28;20034;-80
2022/11/02 03:39:13;;;;;;;36.78;5.68;;;;;;;;;;4977720;28;20041;-80
2022/11/02 03:41:43;;;;;;;29.85;4.10;;;;;;;;;;4974037;28;20029;-79
2022/11/02 03:44:14;;;;;;;30.60;5.88;;;;;;;;;;4983546;28;20052;-79
2022/11/02 03:46:43;;;;;;;41.55;5.20;;;;;;;;;;4980358;28;20030;-78
2022/11/02 03:49:16;;;;;;;24.92;5.03;;;;;;;;;;4965187;28;20072;-80
2022/11/02 03:51:43;;;;;;;30.43;3.53;;;;;;;;;;4987078;28;20038;-77
2022/11/02 03:54:41;;;;;;;28.75;4.32;;;;;;;;;;4978336;28;20199;-77
2022/11/02 03:57:08;;;;;;;19.25;3.20;;;;;;;;;;4972693;28;20029;-76
2022/11/02 03:59:36;;;;;;;25.90;4.75;;;;;;;;;;4978805;28;20041;-73
2022/11/02 04:02:02;;;;;;;26.08;3.65;;;;;;;;;;4980017;28;20599;-78
2022/11/02 04:04:27;;;;;;;42.05;6.15;;;;;;;;;;4984660;28;20307;-78
2022/11/02 04:06:53;;;;;;;34.10;4.85;;;;;;;;;;4977573;28;20038;-76
2022/11/02 04:09:23;;;;;;;22.80;4.22;;;;;;;;;;4972096;28;20529;-81
2022/11/02 04:14:38;;;;;;;26.77;3.88;;;;;;;;;;4971756;28;20059;-74
2022/11/02 04:19:53;;;;;;;24.83;3.40;;;;;;;;;;4987723;28;20049;-79
2022/11/02 04:25:17;;;;;;;23.25;4.20;;;;;;;;;;4975991;28;20044;-76
2022/11/02 04:27:43;;;;;;;23.10;4.72;;;;;;;;;;4952801;28;20049;-73
2022/11/02 04:30:11;;;;;;;25.40;4.30;;;;;;;;;;4983848;28;20138;-75
2022/11/02 04:35:30;;;;;;;23.70;3.97;;;;;;;;;;4980199;28;20041;-76
2022/11/02 04:40:43;;;;;;;34.45;4.88;;;;;;;;;;4971430;28;20049;-77
2022/11/02 04:43:08;;;;;;;25.13;4.63;;;;;;;;;;4982923;28;20037;-74
2022/11/02 04:45:34;;;;;;;25.33;4.35;;;;;;;;;;4978324;28;20353;-74
2022/11/02 04:48:05;;;;;;;20.45;3.63;;;;;;;;;;4978845;28;20375;-75
2022/11/02 04:50:33;;;;;;;28.88;4.50;;;;;;;;;;4976783;28;20041;-79
2022/11/02 04:53:00;;;;;;;32.53;4.03;;;;;;;;;;4960996;28;20353;-76
2022/11/02 04:55:33;;;;;;;27.85;5.05;;;;;;;;;;4960137;28;20046;-76
2022/11/02 04:58:07;;;;;;;25.75;4.20;;;;;;;;;;4954699;28;20508;-74
2022/11/02 05:00:33;;;;;;;23.45;3.70;;;;;;;;;;4942169;28;20171;-76
2022/11/02 05:02:59;;;;;;;23.83;4.43;;;;;;;;;;4940524;28;20154;-76
2022/11/02 05:05:25;;;;;;;31.98;4.70;;;;;;;;;;4966468;28;20115;-76
2022/11/02 05:07:56;;;;;;;25.02;3.65;;;;;;;;;;4975699;28;20561;-76
2022/11/02 05:10:25;;;;;;;22.88;3.55;;;;;;;;;;4983441;28;20021;-76
2022/11/02 05:12:58;;;;;;;24.23;4.97;;;;;;;;;;4982026;28;20098;-75
2022/11/02 05:15:27;;;;;;;23.25;4.03;;;;;;;;;;4971623;28;20037;-76
2022/11/02 05:17:55;;;;;;;19.52;2.90;;;;;;;;;;4971695;28;20028;-76
2022/11/02 05:20:23;;;;;;;27.98;4.97;;;;;;;;;;4978722;28;20218;-76
2022/11/02 05:22:54;;;;;;;24.35;3.97;;;;;;;;;;4960727;28;20155;-76
2022/11/02 05:25:20;;;;;;;27.20;4.10;;;;;;;;;;4970623;28;20034;-74
2022/11/02 05:27:45;;;;;;;25.60;4.72;;;;;;;;;;4945682;28;20682;-74
2022/11/02 05:30:14;;;;;;;20.38;3.80;;;;;;;;;;4964397;28;20125;-74
2022/11/02 05:32:42;;;;;;;28.90;4.13;;;;;;;;;;4971183;28;20141;-74
2022/11/02 05:35:08;;;;;;;27.42;4.20;;;;;;;;;;4979917;28;20041;-73
2022/11/02 05:37:36;;;;;;;19.90;3.03;;;;;;;;;;4965902;28;20715;-75
2022/11/02 05:40:04;;;;;;;26.40;4.68;;;;;;;;;;4968767;28;20581;-75
2022/11/02 05:42:29;;;;;;;25.90;4.50;;;;;;;;;;4976427;28;20115;-73
2022/11/02 05:44:55;;;;;;;18.63;3.90;;;;;;;;;;4970555;28;20053;-77
2022/11/02 05:47:20;;;;;;;32.72;4.85;;;;;;;;;;4980612;28;20037;-75
2022/11/02 05:49:52;;;;;;;30.15;5.45;;;;;;;;;;4985534;28;20076;-75
2022/11/02 05:52:21;;;;;;;28.10;4.85;;;;;;;;;;4951374;28;20053;-75
2022/11/02 05:54:49;;;;;;;29.08;4.25;;;;;;;;;;4981933;28;20073;-77
2022/11/02 05:57:16;;;;;;;20.48;4.03;;;;;;;;;;4970635;28;20126;-74
2022/11/02 05:59:41;;;;;;;18.27;3.33;;;;;;;;;;4980596;28;20062;-75
2022/11/02 06:02:09;;;;;;;23.90;3.50;;;;;;;;;;4967742;28;20550;-75
2022/11/02 06:04:34;;;;;;;22.40;3.17;;;;;;;;;;4980087;28;20091;-76
2022/11/02 06:07:00;;;;;;;24.05;4.15;;;;;;;;;;4994934;28;20045;-76
2022/11/02 06:09:25;;;;;;;16.77;2.78;;;;;;;;;;4962886;28;20159;-77
2022/11/02 06:11:58;;;;;;;24.98;3.72;;;;;;;;;;4976154;28;20045;-73
2022/11/02 06:14:23;;;;;;;16.83;3.13;;;;;;;;;;4979852;28;20048;-76
2022/11/02 06:16:49;;;;;;;26.58;3.70;;;;;;;;;;4980253;28;20458;-74
2022/11/02 06:19:18;;;;;;;25.60;3.85;;;;;;;;;;4971733;28;20045;-73
2022/11/02 06:21:44;;;;;;;17.27;3.38;;;;;;;;;;4977734;28;20443;-74
2022/11/02 06:24:12;;;;;;;24.33;3.72;;;;;;;;;;4978586;28;20044;-71
2022/11/02 06:26:41;;;;;;;28.40;3.67;;;;;;;;;;4983864;28;20038;-71
2022/11/02 06:29:07;;;;;;;15.05;3.17;;;;;;;;;;4976266;28;20033;-73
2022/11/02 06:31:32;;;;;;;22.38;3.83;;;;;;;;;;4975443;28;20045;-70
2022/11/02 06:33:58;;;;;;;27.63;4.00;;;;;;;;;;4976242;28;22869;-67
2022/11/02 06:36:23;;;;;;;30.13;4.25;;;;;;;;;;4982294;28;20376;-72
2022/11/02 06:38:50;;;;;;;24.15;3.50;;;;;;;;;;4978400;28;20072;-70
2022/11/02 06:41:15;;;;;;;21.88;3.20;;;;;;;;;;4980567;28;20048;-72
2022/11/02 06:43:45;;;;;;;22.10;3.53;;;;;;;;;;4981427;28;20389;-74
2022/11/02 06:46:11;;;;;;;28.20;4.30;;;;;;;;;;4978642;28;20211;-70
2022/11/02 06:48:36;;;;;;;22.10;3.67;;;;;;;;;;4978760;28;20034;-72
2022/11/02 06:51:02;;;;;;;23.05;3.75;;;;;;;;;;4974851;28;20486;-70
2022/11/02 06:53:30;;;;;;;27.30;4.13;;;;;;;;;;4980007;28;20671;-71
2022/11/02 06:55:56;;;;;;;21.73;3.50;;;;;;;;;;4995469;28;20029;-70
2022/11/02 06:58:23;;;;;;;25.13;4.28;;;;;;;;;;4980860;28;20509;-73
2022/11/02 07:00:51;;;;;;;21.88;3.85;;;;;;;;;;4984900;28;20398;-70
2022/11/02 07:03:20;;;;;;;22.20;3.85;;;;;;;;;;4977031;28;20052;-74
2022/11/02 07:05:50;;;;;;;19.13;3.22;;;;;;;;;;4977867;28;20641;-72
2022/11/02 07:08:16;;;;;;;28.80;3.58;;;;;;;;;;4976082;28;20029;-71
2022/11/02 07:10:41;;;;;;;17.25;3.20;;;;;;;;;;4971918;28;20040;-71
2022/11/02 07:13:06;;;;;;;20.80;3.75;;;;;;;;;;4976558;28;20033;-72
2022/11/02 07:15:32;;;;;;;22.35;3.67;;;;;;;;;;4986779;28;20468;-71
2022/11/02 07:17:57;;;;;;;18.52;3.30;;;;;;;;;;4979690;28;20099;-72
2022/11/02 07:20:23;;;;;;;21.98;3.03;;;;;;;;;;4970677;28;20126;-70
2022/11/02 07:22:56;;;;;;;26.05;4.22;;;;;;;;;;4971317;28;20298;-73
2022/11/02 07:25:26;;;;;;;28.50;4.78;;;;;;;;;;4978612;28;20602;-71
2022/11/02 07:27:54;;;;;;;19.88;4.00;;;;;;;;;;4978782;28;20041;-72
2022/11/02 07:30:20;;;;;;;27.70;3.95;;;;;;;;;;4971229;28;20041;-72
2022/11/02 07:32:48;;;;;;;24.23;3.70;;;;;;;;;;4976783;28;20048;-73
2022/11/02 07:35:14;;;;;;;25.83;3.13;;;;;;;;;;4986148;28;20037;-68
2022/11/02 07:37:40;;;;;;;26.83;3.80;;;;;;;;;;4979280;28;20044;-70
2022/11/02 07:40:06;;;;;;;19.85;3.22;;;;;;;;;;4975562;28;20045;-72
2022/11/02 07:42:34;;;;;;;22.27;4.07;;;;;;;;;;4979953;28;20178;-70
2022/11/02 07:44:59;;;;;;;28.83;4.15;;;;;;;;;;4992490;28;20044;-69
2022/11/02 07:47:25;;;;;;;22.23;3.53;;;;;;;;;;4984852;28;20164;-70
2022/11/02 07:49:51;;;;;;;23.63;4.15;;;;;;;;;;4985524;28;20935;-70
2022/11/02 07:52:16;;;;;;;27.45;3.17;;;;;;;;;;4980617;28;20073;-76
2022/11/02 07:54:42;;;;;;;19.30;2.97;;;;;;;;;;4981819;28;20119;-70
2022/11/02 07:57:07;;;;;;;21.13;3.38;;;;;;;;;;4981345;28;20029;-70
2022/11/02 07:59:35;;;;;;;23.48;4.10;;;;;;;;;;4979965;28;20267;-71
2022/11/02 08:02:01;;;;;;;25.98;4.20;;;;;;;;;;4959344;28;20037;-71
2022/11/02 08:04:26;;;;;;;20.40;3.42;;;;;;;;;;4988658;28;20506;-69
2022/11/02 08:06:52;;;;;;;22.73;3.75;;;;;;;;;;4980915;28;20409;-70
2022/11/02 08:09:18;;;;;;;19.55;3.47;;;;;;;;;;4958507;28;20042;-68
2022/11/02 08:11:46;;;;;;;23.17;3.47;;;;;;;;;;4981205;28;20064;-72
2022/11/02 08:14:11;;;;;;;23.95;3.70;;;;;;;;;;4979735;28;21906;-71
2022/11/02 08:16:39;;;;;;;23.13;3.33;;;;;;;;;;4981092;28;20037;-71
2022/11/02 08:19:04;;;;;;;26.48;4.00;;;;;;;;;;4982268;28;20050;-68
2022/11/02 08:21:30;;;;;;;23.95;3.05;;;;;;;;;;4982265;28;20964;-71
2022/11/02 08:23:58;;;;;;;21.15;3.13;;;;;;;;;;4980540;28;20041;-68
2022/11/02 08:26:25;;;;;;;24.92;3.85;;;;;;;;;;4981716;28;20041;-68
2022/11/02 08:28:51;;;;;;;21.95;3.20;;;;;;;;;;4982025;28;20118;-70
2022/11/02 08:31:17;;;;;;;25.52;4.05;;;;;;;;;;4982199;28;20193;-70
2022/11/02 08:33:43;;;;;;;18.73;3.58;;;;;;;;;;4980510;28;20443;-67
2022/11/02 08:36:27;;;;;;;20.25;3.30;;;;;;;;;;4980713;28;20044;-69
2022/11/02 08:38:52;;;;;;;25.33;3.70;;;;;;;;;;4981111;28;20077;-72
2022/11/02 08:41:18;;;;;;;26.30;3.15;;;;;;;;;;4973958;28;20600;-69
2022/11/02 08:43:43;;;;;;;26.30;3.63;;;;;;;;;;4977332;28;20041;-69
2022/11/02 08:46:09;;;;;;;19.20;2.60;;;;;;;;;;4976724;28;20030;-70
2022/11/02 08:48:36;;;;;;;23.50;3.35;;;;;;;;;;4978164;28;20834;-68
2022/11/02 08:51:01;;;;;;;24.88;3.70;;;;;;;;;;4981787;28;20037;-69
2022/11/02 08:53:27;;;;;;;24.02;3.10;;;;;;;;;;4981470;28;20446;-73
2022/11/02 08:55:52;;;;;;;27.67;3.55;;;;;;;;;;4978187;28;20033;-68
2022/11/02 08:58:17;;;;;;;23.67;3.40;;;;;;;;;;4977624;28;20373;-67
2022/11/02 09:00:45;;;;;;;16.63;3.00;;;;;;;;;;4996398;28;20057;-69
2022/11/02 09:03:12;;;;;;;20.73;2.67;;;;;;;;;;4978956;28;20102;-71
2022/11/02 09:05:39;;;;;;;15.43;2.55;;;;;;;;;;4980295;28;20294;-70
2022/11/02 09:08:06;;;;;;;18.30;2.80;;;;;;;;;;4979875;28;20498;-70
2022/11/02 09:10:32;;;;;;;19.48;2.90;;;;;;;;;;4980424;28;20480;-70
2022/11/02 09:12:59;;;;;;;25.50;3.30;;;;;;;;;;4973627;28;20447;-71
2022/11/02 09:15:27;;;;;;;20.42;3.20;;;;;;;;;;4968160;28;20040;-72
2022/11/02 09:17:52;;;;;;;19.38;2.45;;;;;;;;;;4978966;28;20046;-70
2022/11/02 09:20:18;;;;;;;15.30;2.70;;;;;;;;;;4978211;28;20479;-71
2022/11/02 09:22:44;;;;;;;20.02;3.40;;;;;;;;;;4978582;28;20045;-68
2022/11/02 09:25:09;;;;;;;20.95;3.20;;;;;;;;;;4980077;28;20148;-71
2022/11/02 09:27:35;;;;;;;22.52;2.88;;;;;;;;;;4974517;28;20327;-70
2022/11/02 09:30:05;;;;;;;16.13;2.45;;;;;;;;;;4979936;28;20634;-68
2022/11/02 09:32:32;;;;;;;19.13;3.65;;;;;;;;;;4980411;28;20571;-68
2022/11/02 09:35:02;;;;;;;27.23;3.47;;;;;;;;;;4981932;28;20033;-71
2022/11/02 09:37:27;;;;;;;15.38;3.05;;;;;;;;;;4980071;28;20041;-69
2022/11/02 09:39:53;;;;;;;18.88;2.83;;;;;;;;;;4978935;28;20068;-69
2022/11/02 09:42:18;;;;;;;33.88;3.83;;;;;;;;;;4980160;28;20457;-69
2022/11/02 09:44:44;;;;;;;24.30;3.75;;;;;;;;;;4981740;28;20036;-70
2022/11/02 09:47:10;;;;;;;22.27;3.65;;;;;;;;;;4981029;28;21096;-68
2022/11/02 09:49:35;;;;;;;19.27;2.85;;;;;;;;;;4980404;28;20033;-69
2022/11/02 09:52:01;;;;;;;20.00;2.97;;;;;;;;;;4985608;28;20386;-69
2022/11/02 09:54:29;;;;;;;24.05;3.13;;;;;;;;;;4981153;28;20033;-70
2022/11/02 09:57:00;;;;;;;23.65;3.90;;;;;;;;;;4980938;28;20048;-73
2022/11/02 09:59:28;;;;;;;22.75;2.85;;;;;;;;;;4981854;28;20041;-71
2022/11/02 10:02:12;;;;;;;21.85;4.10;;;;;;;;;;4979084;28;20320;-68
2022/11/02 10:05:01;;;;;;;23.00;3.60;;;;;;;;;;4981805;28;20925;-69
2022/11/02 10:07:27;;;;;;;23.08;3.50;;;;;;;;;;4966110;28;20046;-72
2022/11/02 10:09:54;;;;;;;20.95;2.88;;;;;;;;;;4980386;28;20199;-68
2022/11/02 10:12:20;;;;;;;21.25;3.47;;;;;;;;;;4978584;28;20725;-70
2022/11/02 10:15:00;;;;;;;26.65;3.63;;;;;;;;;;4979983;28;20034;-70
2022/11/02 10:17:27;;;;;;;30.35;3.60;;;;;;;;;;4978628;28;20029;-74
2022/11/02 10:19:58;;;;;;;27.05;3.83;;;;;;;;;;4980531;28;20673;-70
2022/11/02 10:22:31;;;;;;;22.35;3.30;;;;;;;;;;4980234;28;20042;-68
2022/11/02 10:24:57;;;;;;;23.70;3.25;;;;;;;;;;4983242;28;20341;-68
2022/11/02 10:27:27;;;;;;;25.52;3.75;;;;;;;;;;4981887;28;20846;-73
2022/11/02 10:30:05;;;;;;;21.23;3.85;;;;;;;;;;4979141;28;20061;-67
2022/11/02 10:32:34;;;;;;;20.95;2.83;;;;;;;;;;4981046;28;20769;-69
2022/11/02 10:35:00;;;;;;;21.90;3.10;;;;;;;;;;4979922;28;20033;-66
2022/11/02 10:37:25;;;;;;;25.77;3.92;;;;;;;;;;4983483;28;20041;-67
2022/11/02 10:40:14;;;;;;;22.20;3.78;;;;;;;;;;4975096;28;20627;-67
2022/11/02 10:42:41;;;;;;;25.13;3.38;;;;;;;;;;4997058;28;20115;-67
2022/11/02 10:45:12;;;;;;;23.85;4.15;;;;;;;;;;4968747;28;20041;-69
2022/11/02 10:47:52;;;;;;;21.58;3.63;;;;;;;;;;4975691;28;20267;-68
2022/11/02 10:50:28;;;;;;;21.10;3.75;;;;;;;;;;4976304;28;20042;-67
2022/11/02 10:52:53;;;;;;;23.40;3.90;;;;;;;;;;4954187;28;20153;-69
2022/11/02 10:55:26;;;;;;;24.42;3.63;;;;;;;;;;4979091;28;20035;-67
2022/11/02 10:57:53;;;;;;;22.23;2.83;;;;;;;;;;4977773;28;20045;-67
2022/11/02 11:00:30;;;;;;;17.88;2.78;;;;;;;;;;4979390;28;20060;-67
2022/11/02 11:03:03;;;;;;;15.50;3.13;;;;;;;;;;4981132;28;20560;-68
2022/11/02 11:05:32;;;;;;;28.33;3.97;;;;;;;;;;4982018;28;20037;-71
2022/11/02 11:07:57;;;;;;;26.00;3.85;;;;;;;;;;4978784;28;20179;-68
2022/11/02 11:10:23;;;;;;;27.42;3.90;;;;;;;;;;4983172;28;20025;-67
2022/11/02 11:12:49;;;;;;;22.80;3.67;;;;;;;;;;4979108;28;20041;-67
2022/11/02 11:15:21;;;;;;;28.95;4.00;;;;;;;;;;4981701;28;20144;-69
2022/11/02 11:17:47;;;;;;;19.95;3.22;;;;;;;;;;4980438;28;20033;-69
2022/11/02 11:20:24;;;;;;;17.88;3.30;;;;;;;;;;4996207;28;20468;-68
2022/11/02 11:23:06;;;;;;;27.35;4.72;;;;;;;;;;4982149;28;20121;-67
2022/11/02 11:25:31;;;;;;;24.63;4.88;;;;;;;;;;4981210;28;20132;-69
2022/11/02 11:27:59;;;;;;;27.55;3.60;;;;;;;;;;4980137;28;22085;-68
2022/11/02 11:30:34;;;;;;;27.50;3.97;;;;;;;;;;4981203;28;20519;-69
2022/11/02 11:33:01;;;;;;;21.35;3.15;;;;;;;;;;4981548;28;20479;-69
2022/11/02 11:35:30;;;;;;;22.70;3.47;;;;;;;;;;4973840;28;20447;-68
2022/11/02 11:38:02;;;;;;;29.77;4.10;;;;;;;;;;4981856;28;20800;-71
2022/11/02 11:40:31;;;;;;;19.20;3.20;;;;;;;;;;4978316;28;20038;-69
2022/11/02 11:42:58;;;;;;;20.80;3.75;;;;;;;;;;4978499;28;20088;-69
2022/11/02 11:45:25;;;;;;;19.90;3.67;;;;;;;;;;4981700;28;20506;-70
2022/11/02 11:48:05;;;;;;;27.10;3.53;;;;;;;;;;4979743;28;20038;-71
2022/11/02 11:50:32;;;;;;;21.00;3.10;;;;;;;;;;4979376;28;20463;-69
2022/11/02 11:53:08;;;;;;;21.00;3.35;;;;;;;;;;4977931;28;20033;-68
2022/11/02 11:55:34;;;;;;;22.90;3.33;;;;;;;;;;4980104;28;20522;-67
2022/11/02 11:58:26;;;;;;;21.58;3.78;;;;;;;;;;4982066;28;20506;-68
2022/11/02 12:01:03;;;;;;;19.80;3.50;;;;;;;;;;4973834;28;21435;-69
2022/11/02 12:03:28;;;;;;;23.08;3.25;;;;;;;;;;4967724;28;21917;-70
2022/11/02 12:06:12;;;;;;;26.23;4.10;;;;;;;;;;4975427;28;20037;-71
2022/11/02 12:08:52;;;;;;;22.88;3.53;;;;;;;;;;4977178;28;21113;-67
2022/11/02 12:11:19;;;;;;;25.25;3.40;;;;;;;;;;4978088;28;20127;-68
2022/11/02 12:13:53;;;;;;;24.70;4.13;;;;;;;;;;4982007;28;20060;-68
2022/11/02 12:16:28;;;;;;;31.23;4.18;;;;;;;;;;4974764;28;20042;-68
2022/11/02 12:18:59;;;;;;;20.60;3.33;;;;;;;;;;4992891;28;21440;-67
2022/11/02 12:21:54;;;;;;;22.60;2.87;;;;;;;;;;4975181;28;20033;-68
2022/11/02 12:24:38;;;;;;;24.70;4.18;;;;;;;;;;4969993;28;20323;-66
2022/11/02 12:27:09;;;;;;;23.83;3.53;;;;;;;;;;4977636;28;20076;-69
2022/11/02 12:29:35;;;;;;;23.67;3.45;;;;;;;;;;4980735;28;20168;-72
2022/11/02 12:32:15;;;;;;;20.60;3.00;;;;;;;;;;4976325;28;20068;-71
2022/11/02 12:35:00;;;;;;;19.20;3.00;;;;;;;;;;4970201;28;20113;-69
2022/11/02 12:37:31;;;;;;;14.38;2.42;;;;;;;;;;4979804;28;20049;-67
2022/11/02 12:39:57;;;;;;;;;;;;;;;;;;4979132;28;20151;-68
2022/11/02 12:42:27;;;;;;;28.23;3.67;;;;;;;;;;4979050;28;19917;-70
2022/11/02 12:44:58;;;;;;;21.48;3.28;;;;;;;;;;4979617;28;20049;-70
2022/11/02 12:47:35;;;;;;;24.70;3.72;;;;;;;;;;4978529;28;20945;-70
2022/11/02 12:50:01;;;;;;;19.55;3.10;;;;;;;;;;4976530;28;20234;-68
2022/11/02 12:52:44;;;;;;;16.88;2.60;;;;;;;;;;4980492;28;20038;-69
2022/11/02 12:55:17;;;;;;;25.35;4.20;;;;;;;;;;4978971;28;20687;-72
2022/11/02 12:57:43;;;;;;;17.95;2.83;;;;;;;;;;4973295;28;20033;-67
2022/11/02 13:00:19;;;;;;;21.27;3.63;;;;;;;;;;4973986;28;20073;-70
2022/11/02 13:02:59;;;;;;;21.25;4.25;;;;;;;;;;4977114;28;20236;-70
2022/11/02 13:05:34;;;;;;;17.60;4.15;;;;;;;;;;4974479;28;20484;-70
2022/11/02 13:08:11;;;;;;;20.08;4.40;;;;;;;;;;4979090;28;20041;-67
2022/11/02 13:10:46;;;;;;;20.65;3.92;;;;;;;;;;4976174;28;20596;-70
2022/11/02 13:13:20;;;;;;;21.13;5.22;;;;;;;;;;4976245;28;20030;-68
2022/11/02 13:15:47;;;;;;;24.13;4.78;;;;;;;;;;4975772;28;20101;-67
2022/11/02 13:18:23;;;;;;;20.98;5.63;;;;;;;;;;4977055;28;20064;-67
2022/11/02 13:20:50;;;;;;;17.85;4.53;;;;;;;;;;4993067;28;20297;-72
2022/11/02 13:23:29;;;;;;;13.57;3.05;;;;;;;;;;4977151;28;20380;-70
2022/11/02 13:25:57;;;;;;;20.70;4.30;;;;;;;;;;4978551;28;20519;-67
2022/11/02 13:28:45;;;;;;;18.05;3.60;;;;;;;;;;4978248;28;20682;-67
2022/11/02 13:31:17;;;;;;;18.95;4.68;;;;;;;;;;4975944;28;20042;-67
2022/11/02 13:33:45;;;;;;;18.65;3.95;;;;;;;;;;4974581;28;20118;-69
2022/11/02 13:36:11;;;;;;;14.13;4.03;;;;;;;;;;4973778;28;22091;-67
2022/11/02 13:38:43;;;;;;;15.95;3.47;;;;;;;;;;4976985;28;20297;-68
2022/11/02 13:41:27;;;;;;;19.75;4.55;;;;;;;;;;4981668;28;20855;-67
2022/11/02 13:44:11;;;;;;;21.33;4.47;;;;;;;;;;4975142;28;20543;-70
2022/11/02 13:46:42;;;;;;;15.20;3.70;;;;;;;;;;4978652;28;22209;-67
2022/11/02 13:49:20;;;;;;;18.80;4.05;;;;;;;;;;4982469;28;21033;-69
2022/11/02 13:51:48;;;;;;;27.58;4.40;;;;;;;;;;4981934;28;20038;-68
2022/11/02 13:54:19;;;;;;;20.08;3.80;;;;;;;;;;4976084;28;20420;-68
2022/11/02 13:56:50;;;;;;;12.23;2.47;;;;;;;;;;4977295;28;20036;-69
2022/11/02 13:59:21;;;;;;;17.83;3.22;;;;;;;;;;4982505;28;20072;-67
2022/11/02 14:01:46;;;;;;;11.15;3.40;;;;;;;;;;4980768;28;22039;-70
2022/11/02 14:04:13;;;;;;;16.98;3.38;;;;;;;;;;4976875;28;20673;-68
2022/11/02 14:06:47;;;;;;;21.35;5.07;;;;;;;;;;4983248;28;20778;-71
2022/11/02 14:09:21;;;;;;;16.67;4.57;;;;;;;;;;4983842;28;20605;-68
2022/11/02 14:11:47;;;;;;;12.30;3.08;;;;;;;;;;4982632;28;20307;-70
2022/11/02 14:14:18;;;;;;;16.95;2.97;;;;;;;;;;4961452;28;20029;-68
2022/11/02 14:16:45;;;;;;;22.85;3.60;;;;;;;;;;4982619;28;20300;-68
2022/11/02 14:19:16;;;;;;;18.45;4.30;;;;;;;;;;4983811;28;20052;-70
2022/11/02 14:21:42;;;;;;;17.98;3.80;;;;;;;;;;4983219;28;20037;-69
2022/11/02 14:24:27;;;;;;;19.55;4.95;;;;;;;;;;4982462;28;20872;-67
2022/11/02 14:26:56;;;;;;;18.92;3.72;;;;;;;;;;4981603;28;20497;-72
2022/11/02 14:29:45;;;;;;;18.27;3.63;;;;;;;;;;4984132;28;21908;-70
2022/11/02 14:32:33;;;;;;;19.80;4.40;;;;;;;;;;4997334;28;20273;-67
2022/11/02 14:35:03;;;;;;;19.73;3.90;;;;;;;;;;4981636;28;20034;-72
2022/11/02 14:37:34;;;;;;;20.73;3.83;;;;;;;;;;4980424;28;20038;-70
2022/11/02 14:40:11;;;;;;;19.08;4.90;;;;;;;;;;4983864;28;20437;-71
2022/11/02 14:42:39;;;;;;;21.17;4.60;;;;;;;;;;4982718;28;20115;-69
2022/11/02 14:45:25;;;;;;;18.80;3.83;;;;;;;;;;4983288;28;22145;-70
2022/11/02 14:48:12;;;;;;;28.80;5.18;;;;;;;;;;4980798;28;20107;-67
2022/11/02 14:50:39;;;;;;;21.17;4.32;;;;;;;;;;4977983;28;20048;-71
2022/11/02 14:53:06;;;;;;;20.48;4.55;;;;;;;;;;4983930;28;22454;-69
2022/11/02 14:55:33;;;;;;;23.90;6.50;;;;;;;;;;4984858;28;20096;-70
2022/11/02 14:58:04;;;;;;;20.05;4.50;;;;;;;;;;4981882;28;20033;-67
2022/11/02 15:00:34;;;;;;;22.05;4.55;;;;;;;;;;4985231;28;20042;-69
2022/11/02 15:03:00;;;;;;;19.83;4.63;;;;;;;;;;4992532;28;20042;-67